Biola, California
Current Conditions -  °F | °C
As of 11:53 PM on Thursday 27 Nov 2014 (Local Time) from KMAE Reporting Station
Haze Haze  
Wind Chill: 45°   Ceiling: Unl
Heat Index: 45°   Visibility: 6mi
Dew Point: 40°   Wind: 3mph
Humidity: 82%   Direction: 230°SW
Pressure: 30.07"   Gusts: NA
Location:  36.8°N, 120.02°W
Report Text: KMAE 280753Z AUTO 23003KT 6SM HZ CLR 07/04 A3007 RMK AO2 SLP182 T00720044 402220044
Loading
Personal Weather Stations






























Interactive Weather Map New forecast layout! Learn more

10-Day Weather Forecast

Advertisements
Track Severe Weather on mobile